sensor_id;sensor_type;location;lat;lon;timestamp;P1;durP1;ratioP1;P2;durP2;ratioP2
9420;SDS011;4749;51.398;5.466;2022-10-28T00:03:53;6.57;;;4.10;;
9420;SDS011;4749;51.398;5.466;2022-10-28T00:06:24;10.82;;;4.80;;
9420;SDS011;4749;51.398;5.466;2022-10-28T00:08:53;14.85;;;5.05;;
9420;SDS011;4749;51.398;5.466;2022-10-28T00:11:22;12.77;;;5.10;;
9420;SDS011;4749;51.398;5.466;2022-10-28T00:13:53;8.70;;;4.95;;
9420;SDS011;4749;51.398;5.466;2022-10-28T00:16:24;6.05;;;4.53;;
9420;SDS011;4749;51.398;5.466;2022-10-28T00:18:53;10.35;;;4.88;;
9420;SDS011;4749;51.398;5.466;2022-10-28T00:21:22;7.88;;;4.78;;
9420;SDS011;4749;51.398;5.466;2022-10-28T00:23:55;10.75;;;5.15;;
9420;SDS011;4749;51.398;5.466;2022-10-28T00:26:24;16.83;;;5.82;;
9420;SDS011;4749;51.398;5.466;2022-10-28T00:28:56;8.40;;;4.57;;
9420;SDS011;4749;51.398;5.466;2022-10-28T00:31:26;10.13;;;5.03;;
9420;SDS011;4749;51.398;5.466;2022-10-28T00:33:56;11.65;;;4.93;;
9420;SDS011;4749;51.398;5.466;2022-10-28T00:36:26;11.00;;;4.97;;
9420;SDS011;4749;51.398;5.466;2022-10-28T00:38:57;9.07;;;4.70;;
9420;SDS011;4749;51.398;5.466;2022-10-28T00:41:26;9.05;;;4.95;;
9420;SDS011;4749;51.398;5.466;2022-10-28T00:44:41;8.13;;;4.60;;
9420;SDS011;4749;51.398;5.466;2022-10-28T00:47:55;11.10;;;4.53;;
9420;SDS011;4749;51.398;5.466;2022-10-28T00:50:13;9.13;;;4.65;;
9420;SDS011;4749;51.398;5.466;2022-10-28T00:52:41;10.27;;;4.85;;
9420;SDS011;4749;51.398;5.466;2022-10-28T00:55:12;7.55;;;4.22;;
9420;SDS011;4749;51.398;5.466;2022-10-28T00:57:43;6.90;;;4.10;;
9420;SDS011;4749;51.398;5.466;2022-10-28T01:00:12;7.97;;;4.15;;
9420;SDS011;4749;51.398;5.466;2022-10-28T01:02:44;7.97;;;4.68;;
9420;SDS011;4749;51.398;5.466;2022-10-28T01:05:24;8.23;;;4.72;;
9420;SDS011;4749;51.398;5.466;2022-10-28T01:07:59;8.75;;;4.53;;
9420;SDS011;4749;51.398;5.466;2022-10-28T01:10:43;8.70;;;4.50;;
9420;SDS011;4749;51.398;5.466;2022-10-28T01:16:19;10.40;;;4.43;;
9420;SDS011;4749;51.398;5.466;2022-10-28T01:19:39;9.85;;;4.38;;
9420;SDS011;4749;51.398;5.466;2022-10-28T01:22:24;12.63;;;4.53;;
9420;SDS011;4749;51.398;5.466;2022-10-28T01:31:22;10.50;;;4.30;;
9420;SDS011;4749;51.398;5.466;2022-10-28T01:36:41;8.07;;;3.90;;
9420;SDS011;4749;51.398;5.466;2022-10-28T01:42:30;8.82;;;3.80;;
9420;SDS011;4749;51.398;5.466;2022-10-28T01:45:21;12.85;;;4.55;;
9420;SDS011;4749;51.398;5.466;2022-10-28T01:48:00;14.05;;;3.88;;
9420;SDS011;4749;51.398;5.466;2022-10-28T01:50:42;8.63;;;3.88;;
9420;SDS011;4749;51.398;5.466;2022-10-28T01:53:20;10.73;;;3.97;;
9420;SDS011;4749;51.398;5.466;2022-10-28T01:55:52;11.82;;;4.28;;
9420;SDS011;4749;51.398;5.466;2022-10-28T01:58:26;7.85;;;4.25;;
9420;SDS011;4749;51.398;5.466;2022-10-28T02:00:58;9.02;;;4.05;;
9420;SDS011;4749;51.398;5.466;2022-10-28T02:03:30;14.07;;;4.18;;
9420;SDS011;4749;51.398;5.466;2022-10-28T02:05:58;10.55;;;3.83;;
9420;SDS011;4749;51.398;5.466;2022-10-28T02:08:52;10.82;;;3.65;;
9420;SDS011;4749;51.398;5.466;2022-10-28T02:17:25;6.70;;;3.35;;
9420;SDS011;4749;51.398;5.466;2022-10-28T02:23:10;11.70;;;3.83;;
9420;SDS011;4749;51.398;5.466;2022-10-28T02:28:26;10.60;;;4.15;;
9420;SDS011;4749;51.398;5.466;2022-10-28T02:34:06;8.10;;;4.95;;
9420;SDS011;4749;51.398;5.466;2022-10-28T02:36:39;9.18;;;4.05;;
9420;SDS011;4749;51.398;5.466;2022-10-28T02:39:11;10.07;;;3.92;;
9420;SDS011;4749;51.398;5.466;2022-10-28T02:41:56;7.57;;;3.45;;
9420;SDS011;4749;51.398;5.466;2022-10-28T02:44:33;10.73;;;3.50;;
9420;SDS011;4749;51.398;5.466;2022-10-28T02:47:07;11.57;;;4.20;;
9420;SDS011;4749;51.398;5.466;2022-10-28T02:49:46;6.95;;;3.53;;
9420;SDS011;4749;51.398;5.466;2022-10-28T02:52:21;7.25;;;3.35;;
9420;SDS011;4749;51.398;5.466;2022-10-28T02:54:54;6.55;;;3.17;;
9420;SDS011;4749;51.398;5.466;2022-10-28T02:57:24;7.72;;;3.60;;
9420;SDS011;4749;51.398;5.466;2022-10-28T02:59:57;11.60;;;4.00;;
9420;SDS011;4749;51.398;5.466;2022-10-28T03:02:30;14.57;;;3.75;;
9420;SDS011;4749;51.398;5.466;2022-10-28T03:04:57;9.23;;;3.33;;
9420;SDS011;4749;51.398;5.466;2022-10-28T03:07:24;9.45;;;4.32;;
9420;SDS011;4749;51.398;5.466;2022-10-28T03:09:51;9.48;;;3.50;;
9420;SDS011;4749;51.398;5.466;2022-10-28T03:12:18;8.00;;;3.42;;
9420;SDS011;4749;51.398;5.466;2022-10-28T03:14:45;9.98;;;3.80;;
9420;SDS011;4749;51.398;5.466;2022-10-28T03:17:12;10.00;;;3.60;;
9420;SDS011;4749;51.398;5.466;2022-10-28T03:19:39;9.30;;;3.88;;
9420;SDS011;4749;51.398;5.466;2022-10-28T03:22:06;11.82;;;4.28;;
9420;SDS011;4749;51.398;5.466;2022-10-28T03:24:33;11.55;;;3.10;;
9420;SDS011;4749;51.398;5.466;2022-10-28T03:27:00;9.98;;;3.88;;
9420;SDS011;4749;51.398;5.466;2022-10-28T03:29:27;10.35;;;3.50;;
9420;SDS011;4749;51.398;5.466;2022-10-28T03:31:54;14.38;;;3.80;;
9420;SDS011;4749;51.398;5.466;2022-10-28T03:34:21;10.70;;;3.97;;
9420;SDS011;4749;51.398;5.466;2022-10-28T03:36:48;21.17;;;3.70;;
9420;SDS011;4749;51.398;5.466;2022-10-28T03:39:15;10.27;;;3.88;;
9420;SDS011;4749;51.398;5.466;2022-10-28T03:41:42;13.77;;;3.80;;
9420;SDS011;4749;51.398;5.466;2022-10-28T03:44:09;13.20;;;4.10;;
9420;SDS011;4749;51.398;5.466;2022-10-28T03:46:36;12.45;;;3.65;;
9420;SDS011;4749;51.398;5.466;2022-10-28T03:49:03;15.57;;;3.92;;
9420;SDS011;4749;51.398;5.466;2022-10-28T03:51:30;14.32;;;4.03;;
9420;SDS011;4749;51.398;5.466;2022-10-28T03:53:57;14.40;;;3.95;;
9420;SDS011;4749;51.398;5.466;2022-10-28T03:56:25;9.07;;;3.65;;
9420;SDS011;4749;51.398;5.466;2022-10-28T03:58:51;12.88;;;4.30;;
9420;SDS011;4749;51.398;5.466;2022-10-28T04:01:18;10.40;;;3.67;;
9420;SDS011;4749;51.398;5.466;2022-10-28T04:03:46;10.05;;;3.90;;
9420;SDS011;4749;51.398;5.466;2022-10-28T04:06:13;10.98;;;4.15;;
9420;SDS011;4749;51.398;5.466;2022-10-28T04:08:40;9.95;;;3.70;;
9420;SDS011;4749;51.398;5.466;2022-10-28T04:11:07;11.77;;;3.53;;
9420;SDS011;4749;51.398;5.466;2022-10-28T04:13:34;7.97;;;3.88;;
9420;SDS011;4749;51.398;5.466;2022-10-28T04:16:01;9.57;;;3.50;;
9420;SDS011;4749;51.398;5.466;2022-10-28T04:18:28;12.10;;;3.80;;
9420;SDS011;4749;51.398;5.466;2022-10-28T04:20:55;10.27;;;3.40;;
9420;SDS011;4749;51.398;5.466;2022-10-28T04:23:22;6.43;;;3.70;;
9420;SDS011;4749;51.398;5.466;2022-10-28T04:25:53;11.15;;;3.70;;
9420;SDS011;4749;51.398;5.466;2022-10-28T04:28:20;10.90;;;3.78;;
9420;SDS011;4749;51.398;5.466;2022-10-28T04:30:51;12.13;;;3.85;;
9420;SDS011;4749;51.398;5.466;2022-10-28T04:33:18;14.45;;;4.20;;
9420;SDS011;4749;51.398;5.466;2022-10-28T04:35:45;10.07;;;3.92;;
9420;SDS011;4749;51.398;5.466;2022-10-28T04:38:12;8.95;;;3.85;;
9420;SDS011;4749;51.398;5.466;2022-10-28T04:40:40;12.15;;;4.30;;
9420;SDS011;4749;51.398;5.466;2022-10-28T04:43:07;9.98;;;3.60;;
9420;SDS011;4749;51.398;5.466;2022-10-28T04:45:37;10.43;;;3.45;;
9420;SDS011;4749;51.398;5.466;2022-10-28T04:48:04;15.07;;;3.95;;
9420;SDS011;4749;51.398;5.466;2022-10-28T04:50:32;13.82;;;3.95;;
9420;SDS011;4749;51.398;5.466;2022-10-28T04:52:59;14.05;;;4.13;;
9420;SDS011;4749;51.398;5.466;2022-10-28T04:55:26;7.80;;;3.25;;
9420;SDS011;4749;51.398;5.466;2022-10-28T04:57:56;11.60;;;3.90;;
9420;SDS011;4749;51.398;5.466;2022-10-28T05:00:26;6.78;;;3.67;;
9420;SDS011;4749;51.398;5.466;2022-10-28T05:02:55;9.55;;;3.42;;
9420;SDS011;4749;51.398;5.466;2022-10-28T05:05:23;9.60;;;3.30;;
9420;SDS011;4749;51.398;5.466;2022-10-28T05:07:50;17.95;;;4.78;;
9420;SDS011;4749;51.398;5.466;2022-10-28T05:10:18;10.30;;;4.10;;
9420;SDS011;4749;51.398;5.466;2022-10-28T05:12:45;11.13;;;3.83;;
9420;SDS011;4749;51.398;5.466;2022-10-28T05:15:13;10.20;;;3.97;;
9420;SDS011;4749;51.398;5.466;2022-10-28T05:17:44;13.20;;;4.10;;
9420;SDS011;4749;51.398;5.466;2022-10-28T05:20:13;8.48;;;3.75;;
9420;SDS011;4749;51.398;5.466;2022-10-28T05:22:50;8.02;;;3.42;;
9420;SDS011;4749;51.398;5.466;2022-10-28T05:25:20;16.00;;;4.22;;
9420;SDS011;4749;51.398;5.466;2022-10-28T05:27:48;12.32;;;3.80;;
9420;SDS011;4749;51.398;5.466;2022-10-28T05:30:15;9.32;;;3.90;;
9420;SDS011;4749;51.398;5.466;2022-10-28T05:32:43;14.02;;;4.38;;
9420;SDS011;4749;51.398;5.466;2022-10-28T05:35:16;8.43;;;4.30;;
9420;SDS011;4749;51.398;5.466;2022-10-28T05:37:43;16.35;;;4.40;;
9420;SDS011;4749;51.398;5.466;2022-10-28T05:40:10;16.92;;;4.15;;
9420;SDS011;4749;51.398;5.466;2022-10-28T05:42:41;13.10;;;4.30;;
9420;SDS011;4749;51.398;5.466;2022-10-28T05:45:10;12.18;;;4.10;;
9420;SDS011;4749;51.398;5.466;2022-10-28T05:47:44;10.57;;;4.20;;
9420;SDS011;4749;51.398;5.466;2022-10-28T05:50:14;7.53;;;4.07;;
9420;SDS011;4749;51.398;5.466;2022-10-28T05:52:47;9.40;;;4.10;;
9420;SDS011;4749;51.398;5.466;2022-10-28T05:55:20;10.70;;;4.15;;
9420;SDS011;4749;51.398;5.466;2022-10-28T05:57:51;14.30;;;4.35;;
9420;SDS011;4749;51.398;5.466;2022-10-28T06:00:20;9.35;;;3.78;;
9420;SDS011;4749;51.398;5.466;2022-10-28T06:02:50;7.88;;;4.15;;
9420;SDS011;4749;51.398;5.466;2022-10-28T06:05:17;10.35;;;4.22;;
9420;SDS011;4749;51.398;5.466;2022-10-28T06:07:44;10.43;;;4.10;;
9420;SDS011;4749;51.398;5.466;2022-10-28T06:10:11;14.55;;;4.63;;
9420;SDS011;4749;51.398;5.466;2022-10-28T06:12:39;12.27;;;4.13;;
9420;SDS011;4749;51.398;5.466;2022-10-28T06:15:06;15.20;;;4.65;;
9420;SDS011;4749;51.398;5.466;2022-10-28T06:17:34;12.70;;;4.30;;
9420;SDS011;4749;51.398;5.466;2022-10-28T06:20:02;11.02;;;4.05;;
9420;SDS011;4749;51.398;5.466;2022-10-28T06:22:30;19.48;;;4.97;;
9420;SDS011;4749;51.398;5.466;2022-10-28T06:24:57;14.18;;;5.25;;
9420;SDS011;4749;51.398;5.466;2022-10-28T06:27:24;18.75;;;4.97;;
9420;SDS011;4749;51.398;5.466;2022-10-28T06:29:51;14.02;;;4.55;;
9420;SDS011;4749;51.398;5.466;2022-10-28T06:32:19;13.45;;;5.57;;
9420;SDS011;4749;51.398;5.466;2022-10-28T06:34:46;13.57;;;4.97;;
9420;SDS011;4749;51.398;5.466;2022-10-28T06:37:13;11.43;;;4.57;;
9420;SDS011;4749;51.398;5.466;2022-10-28T06:39:40;9.02;;;4.93;;
9420;SDS011;4749;51.398;5.466;2022-10-28T06:42:08;11.82;;;4.95;;
9420;SDS011;4749;51.398;5.466;2022-10-28T06:44:35;16.20;;;5.63;;
9420;SDS011;4749;51.398;5.466;2022-10-28T06:47:02;15.68;;;5.22;;
9420;SDS011;4749;51.398;5.466;2022-10-28T06:49:29;9.35;;;4.20;;
9420;SDS011;4749;51.398;5.466;2022-10-28T06:51:56;13.07;;;4.68;;
9420;SDS011;4749;51.398;5.466;2022-10-28T06:54:23;9.82;;;4.53;;
9420;SDS011;4749;51.398;5.466;2022-10-28T06:56:50;8.77;;;4.80;;
9420;SDS011;4749;51.398;5.466;2022-10-28T06:59:17;8.25;;;4.13;;
9420;SDS011;4749;51.398;5.466;2022-10-28T07:01:45;12.52;;;4.72;;
9420;SDS011;4749;51.398;5.466;2022-10-28T07:04:12;8.38;;;5.10;;
9420;SDS011;4749;51.398;5.466;2022-10-28T07:06:39;14.07;;;5.10;;
9420;SDS011;4749;51.398;5.466;2022-10-28T07:09:06;11.70;;;4.32;;
9420;SDS011;4749;51.398;5.466;2022-10-28T07:11:41;15.38;;;5.18;;
9420;SDS011;4749;51.398;5.466;2022-10-28T07:14:10;9.07;;;4.30;;
9420;SDS011;4749;51.398;5.466;2022-10-28T07:16:36;10.95;;;4.78;;
9420;SDS011;4749;51.398;5.466;2022-10-28T07:19:03;8.65;;;4.10;;
9420;SDS011;4749;51.398;5.466;2022-10-28T07:21:31;8.75;;;4.38;;
9420;SDS011;4749;51.398;5.466;2022-10-28T07:23:58;8.55;;;4.30;;
9420;SDS011;4749;51.398;5.466;2022-10-28T07:26:25;13.63;;;5.25;;
9420;SDS011;4749;51.398;5.466;2022-10-28T07:28:52;9.88;;;5.10;;
9420;SDS011;4749;51.398;5.466;2022-10-28T07:31:20;14.27;;;5.32;;
9420;SDS011;4749;51.398;5.466;2022-10-28T07:33:51;12.00;;;4.50;;
9420;SDS011;4749;51.398;5.466;2022-10-28T07:36:19;12.57;;;4.63;;
9420;SDS011;4749;51.398;5.466;2022-10-28T07:38:50;12.30;;;4.00;;
9420;SDS011;4749;51.398;5.466;2022-10-28T07:41:18;10.32;;;3.92;;
9420;SDS011;4749;51.398;5.466;2022-10-28T07:43:47;8.45;;;4.13;;
9420;SDS011;4749;51.398;5.466;2022-10-28T07:46:14;10.57;;;4.50;;
9420;SDS011;4749;51.398;5.466;2022-10-28T07:48:43;12.40;;;4.28;;
9420;SDS011;4749;51.398;5.466;2022-10-28T07:51:11;8.75;;;5.03;;
9420;SDS011;4749;51.398;5.466;2022-10-28T07:53:40;10.40;;;4.40;;
9420;SDS011;4749;51.398;5.466;2022-10-28T07:56:08;9.68;;;4.65;;
9420;SDS011;4749;51.398;5.466;2022-10-28T07:58:40;8.85;;;4.00;;
9420;SDS011;4749;51.398;5.466;2022-10-28T08:01:10;11.23;;;4.43;;
9420;SDS011;4749;51.398;5.466;2022-10-28T08:03:41;15.43;;;4.35;;
9420;SDS011;4749;51.398;5.466;2022-10-28T08:08:37;17.20;;;4.25;;
9420;SDS011;4749;51.398;5.466;2022-10-28T08:11:09;9.65;;;3.90;;
9420;SDS011;4749;51.398;5.466;2022-10-28T08:13:40;10.75;;;4.50;;
9420;SDS011;4749;51.398;5.466;2022-10-28T08:16:07;10.02;;;4.00;;
9420;SDS011;4749;51.398;5.466;2022-10-28T08:18:35;13.50;;;4.45;;
9420;SDS011;4749;51.398;5.466;2022-10-28T08:21:04;13.93;;;4.45;;
9420;SDS011;4749;51.398;5.466;2022-10-28T08:23:33;8.18;;;3.97;;
9420;SDS011;4749;51.398;5.466;2022-10-28T08:26:01;6.75;;;3.38;;
9420;SDS011;4749;51.398;5.466;2022-10-28T08:28:29;11.02;;;3.53;;
9420;SDS011;4749;51.398;5.466;2022-10-28T08:31:00;9.00;;;3.75;;
9420;SDS011;4749;51.398;5.466;2022-10-28T08:33:35;8.77;;;3.58;;
9420;SDS011;4749;51.398;5.466;2022-10-28T08:36:08;14.10;;;4.15;;
9420;SDS011;4749;51.398;5.466;2022-10-28T08:38:39;11.00;;;3.47;;
9420;SDS011;4749;51.398;5.466;2022-10-28T08:49:25;10.10;;;3.63;;
9420;SDS011;4749;51.398;5.466;2022-10-28T08:52:20;14.65;;;4.57;;
9420;SDS011;4749;51.398;5.466;2022-10-28T08:55:29;10.98;;;4.32;;
9420;SDS011;4749;51.398;5.466;2022-10-28T08:58:06;11.13;;;4.07;;
9420;SDS011;4749;51.398;5.466;2022-10-28T09:00:42;7.82;;;3.90;;
9420;SDS011;4749;51.398;5.466;2022-10-28T09:06:09;11.90;;;3.55;;
9420;SDS011;4749;51.398;5.466;2022-10-28T09:08:44;9.43;;;3.88;;
9420;SDS011;4749;51.398;5.466;2022-10-28T09:14:23;7.22;;;3.30;;
9420;SDS011;4749;51.398;5.466;2022-10-28T09:19:51;11.27;;;3.58;;
9420;SDS011;4749;51.398;5.466;2022-10-28T09:22:42;7.93;;;3.42;;
9420;SDS011;4749;51.398;5.466;2022-10-28T09:25:35;13.75;;;4.28;;
9420;SDS011;4749;51.398;5.466;2022-10-28T09:28:26;13.30;;;3.92;;
9420;SDS011;4749;51.398;5.466;2022-10-28T09:36:32;10.20;;;3.30;;
9420;SDS011;4749;51.398;5.466;2022-10-28T09:39:05;13.07;;;4.03;;
9420;SDS011;4749;51.398;5.466;2022-10-28T09:41:41;11.45;;;3.45;;
9420;SDS011;4749;51.398;5.466;2022-10-28T09:44:13;11.00;;;3.60;;
9420;SDS011;4749;51.398;5.466;2022-10-28T09:47:21;11.90;;;3.35;;
9420;SDS011;4749;51.398;5.466;2022-10-28T09:49:55;12.60;;;3.83;;
9420;SDS011;4749;51.398;5.466;2022-10-28T09:52:32;10.60;;;3.47;;
9420;SDS011;4749;51.398;5.466;2022-10-28T09:55:15;12.82;;;3.08;;
9420;SDS011;4749;51.398;5.466;2022-10-28T09:57:47;9.82;;;3.00;;
9420;SDS011;4749;51.398;5.466;2022-10-28T10:00:15;9.75;;;2.85;;
9420;SDS011;4749;51.398;5.466;2022-10-28T10:02:43;9.73;;;2.92;;
9420;SDS011;4749;51.398;5.466;2022-10-28T10:05:11;8.98;;;3.30;;
9420;SDS011;4749;51.398;5.466;2022-10-28T10:07:54;10.55;;;3.20;;
9420;SDS011;4749;51.398;5.466;2022-10-28T10:10:31;7.78;;;3.05;;
9420;SDS011;4749;51.398;5.466;2022-10-28T10:13:01;8.98;;;3.78;;
9420;SDS011;4749;51.398;5.466;2022-10-28T10:15:53;11.30;;;3.95;;
9420;SDS011;4749;51.398;5.466;2022-10-28T10:18:27;8.35;;;3.00;;
9420;SDS011;4749;51.398;5.466;2022-10-28T10:21:00;11.38;;;2.75;;
9420;SDS011;4749;51.398;5.466;2022-10-28T10:23:32;8.85;;;3.40;;
9420;SDS011;4749;51.398;5.466;2022-10-28T10:28:39;10.38;;;3.10;;
9420;SDS011;4749;51.398;5.466;2022-10-28T10:31:18;8.35;;;3.15;;
9420;SDS011;4749;51.398;5.466;2022-10-28T10:33:55;11.57;;;2.78;;
9420;SDS011;4749;51.398;5.466;2022-10-28T10:36:23;6.57;;;2.65;;
9420;SDS011;4749;51.398;5.466;2022-10-28T10:38:57;20.02;;;4.07;;
9420;SDS011;4749;51.398;5.466;2022-10-28T10:47:28;6.15;;;2.88;;
9420;SDS011;4749;51.398;5.466;2022-10-28T10:49:36;10.98;;;3.35;;
9420;SDS011;4749;51.398;5.466;2022-10-28T10:52:21;15.30;;;3.28;;
9420;SDS011;4749;51.398;5.466;2022-10-28T10:54:59;12.02;;;3.20;;
9420;SDS011;4749;51.398;5.466;2022-10-28T10:57:32;13.60;;;3.15;;
9420;SDS011;4749;51.398;5.466;2022-10-28T10:59:59;6.55;;;2.22;;
9420;SDS011;4749;51.398;5.466;2022-10-28T11:02:29;10.30;;;2.63;;
9420;SDS011;4749;51.398;5.466;2022-10-28T11:05:09;8.90;;;3.25;;
9420;SDS011;4749;51.398;5.466;2022-10-28T11:07:37;9.57;;;3.30;;
9420;SDS011;4749;51.398;5.466;2022-10-28T11:10:22;12.07;;;3.03;;
9420;SDS011;4749;51.398;5.466;2022-10-28T11:13:02;9.43;;;3.28;;
9420;SDS011;4749;51.398;5.466;2022-10-28T11:16:01;13.35;;;3.17;;
9420;SDS011;4749;51.398;5.466;2022-10-28T11:18:41;14.13;;;2.60;;
9420;SDS011;4749;51.398;5.466;2022-10-28T11:30:20;11.25;;;2.97;;
9420;SDS011;4749;51.398;5.466;2022-10-28T11:44:17;10.60;;;3.28;;
9420;SDS011;4749;51.398;5.466;2022-10-28T12:04:24;6.60;;;3.03;;
9420;SDS011;4749;51.398;5.466;2022-10-28T12:16:06;12.90;;;2.70;;
9420;SDS011;4749;51.398;5.466;2022-10-28T12:21:30;7.43;;;2.70;;
9420;SDS011;4749;51.398;5.466;2022-10-28T12:24:05;10.40;;;3.47;;
9420;SDS011;4749;51.398;5.466;2022-10-28T12:26:47;12.10;;;3.55;;
9420;SDS011;4749;51.398;5.466;2022-10-28T12:31:59;10.05;;;2.83;;
9420;SDS011;4749;51.398;5.466;2022-10-28T12:34:38;11.25;;;2.72;;
9420;SDS011;4749;51.398;5.466;2022-10-28T12:37:15;10.18;;;3.20;;
9420;SDS011;4749;51.398;5.466;2022-10-28T12:40:11;11.77;;;3.10;;
9420;SDS011;4749;51.398;5.466;2022-10-28T12:43:03;11.52;;;3.42;;
9420;SDS011;4749;51.398;5.466;2022-10-28T12:45:51;15.35;;;3.00;;
9420;SDS011;4749;51.398;5.466;2022-10-28T12:48:32;11.73;;;3.38;;
9420;SDS011;4749;51.398;5.466;2022-10-28T12:51:15;8.38;;;3.00;;
9420;SDS011;4749;51.398;5.466;2022-10-28T12:56:48;12.23;;;2.90;;
9420;SDS011;4749;51.398;5.466;2022-10-28T12:59:28;12.48;;;3.00;;
9420;SDS011;4749;51.398;5.466;2022-10-28T13:01:57;7.35;;;3.10;;
9420;SDS011;4749;51.398;5.466;2022-10-28T13:04:26;10.43;;;3.25;;
9420;SDS011;4749;51.398;5.466;2022-10-28T13:07:02;7.90;;;2.70;;
9420;SDS011;4749;51.398;5.466;2022-10-28T13:15:40;11.05;;;3.33;;
9420;SDS011;4749;51.398;5.466;2022-10-28T13:24:25;8.98;;;2.83;;
9420;SDS011;4749;51.398;5.466;2022-10-28T13:27:07;9.48;;;2.53;;
9420;SDS011;4749;51.398;5.466;2022-10-28T13:29:39;9.40;;;2.70;;
9420;SDS011;4749;51.398;5.466;2022-10-28T13:35:14;11.57;;;2.50;;
9420;SDS011;4749;51.398;5.466;2022-10-28T13:37:51;8.77;;;3.42;;
9420;SDS011;4749;51.398;5.466;2022-10-28T13:43:00;11.13;;;2.58;;
9420;SDS011;4749;51.398;5.466;2022-10-28T13:56:23;9.90;;;2.67;;
9420;SDS011;4749;51.398;5.466;2022-10-28T13:58:58;6.45;;;2.67;;
9420;SDS011;4749;51.398;5.466;2022-10-28T14:04:52;6.35;;;2.58;;
9420;SDS011;4749;51.398;5.466;2022-10-28T14:07:26;8.85;;;3.17;;
9420;SDS011;4749;51.398;5.466;2022-10-28T14:13:00;16.40;;;3.47;;
9420;SDS011;4749;51.398;5.466;2022-10-28T14:21:02;6.47;;;2.60;;
9420;SDS011;4749;51.398;5.466;2022-10-28T14:26:02;11.90;;;3.30;;
9420;SDS011;4749;51.398;5.466;2022-10-28T14:44:27;12.75;;;2.65;;
9420;SDS011;4749;51.398;5.466;2022-10-28T14:50:19;9.60;;;2.85;;
9420;SDS011;4749;51.398;5.466;2022-10-28T14:52:50;7.00;;;2.70;;
9420;SDS011;4749;51.398;5.466;2022-10-28T14:55:28;13.30;;;3.00;;
9420;SDS011;4749;51.398;5.466;2022-10-28T14:58:10;11.68;;;3.17;;
9420;SDS011;4749;51.398;5.466;2022-10-28T15:03:29;9.15;;;2.70;;
9420;SDS011;4749;51.398;5.466;2022-10-28T15:06:00;11.68;;;3.22;;
9420;SDS011;4749;51.398;5.466;2022-10-28T15:08:44;14.07;;;3.35;;
9420;SDS011;4749;51.398;5.466;2022-10-28T15:11:14;13.20;;;3.25;;
9420;SDS011;4749;51.398;5.466;2022-10-28T15:13:42;12.30;;;3.28;;
9420;SDS011;4749;51.398;5.466;2022-10-28T15:16:17;8.65;;;3.17;;
9420;SDS011;4749;51.398;5.466;2022-10-28T15:18:51;4.80;;;2.38;;
9420;SDS011;4749;51.398;5.466;2022-10-28T15:21:19;10.63;;;2.88;;
9420;SDS011;4749;51.398;5.466;2022-10-28T15:23:58;8.95;;;2.65;;
9420;SDS011;4749;51.398;5.466;2022-10-28T15:26:26;11.68;;;3.45;;
9420;SDS011;4749;51.398;5.466;2022-10-28T15:28:53;8.60;;;2.88;;
9420;SDS011;4749;51.398;5.466;2022-10-28T15:31:21;11.25;;;3.05;;
9420;SDS011;4749;51.398;5.466;2022-10-28T15:33:48;10.48;;;2.88;;
9420;SDS011;4749;51.398;5.466;2022-10-28T15:36:17;10.95;;;3.15;;
9420;SDS011;4749;51.398;5.466;2022-10-28T15:38:50;12.65;;;2.90;;
9420;SDS011;4749;51.398;5.466;2022-10-28T15:41:43;9.57;;;3.47;;
9420;SDS011;4749;51.398;5.466;2022-10-28T15:50:01;7.18;;;2.60;;
9420;SDS011;4749;51.398;5.466;2022-10-28T15:52:41;11.75;;;3.45;;
9420;SDS011;4749;51.398;5.466;2022-10-28T15:58:33;8.27;;;3.13;;
9420;SDS011;4749;51.398;5.466;2022-10-28T16:01:07;10.15;;;2.30;;
9420;SDS011;4749;51.398;5.466;2022-10-28T16:03:51;9.05;;;3.40;;
9420;SDS011;4749;51.398;5.466;2022-10-28T16:06:37;8.77;;;3.05;;
9420;SDS011;4749;51.398;5.466;2022-10-28T16:12:02;11.07;;;3.05;;
9420;SDS011;4749;51.398;5.466;2022-10-28T16:15:03;9.15;;;3.67;;
9420;SDS011;4749;51.398;5.466;2022-10-28T16:17:32;7.85;;;3.10;;
9420;SDS011;4749;51.398;5.466;2022-10-28T16:20:03;9.60;;;3.33;;
9420;SDS011;4749;51.398;5.466;2022-10-28T16:22:44;10.50;;;2.97;;
9420;SDS011;4749;51.398;5.466;2022-10-28T16:25:16;9.48;;;3.30;;
9420;SDS011;4749;51.398;5.466;2022-10-28T16:27:46;10.00;;;3.30;;
9420;SDS011;4749;51.398;5.466;2022-10-28T16:30:17;10.65;;;3.35;;
9420;SDS011;4749;51.398;5.466;2022-10-28T16:32:45;16.02;;;4.03;;
9420;SDS011;4749;51.398;5.466;2022-10-28T16:35:15;15.65;;;3.35;;
9420;SDS011;4749;51.398;5.466;2022-10-28T16:37:47;5.72;;;3.53;;
9420;SDS011;4749;51.398;5.466;2022-10-28T16:40:20;13.18;;;3.67;;
9420;SDS011;4749;51.398;5.466;2022-10-28T16:43:14;11.10;;;3.63;;
9420;SDS011;4749;51.398;5.466;2022-10-28T16:45:43;10.85;;;3.65;;
9420;SDS011;4749;51.398;5.466;2022-10-28T16:48:13;19.45;;;4.18;;
9420;SDS011;4749;51.398;5.466;2022-10-28T16:50:43;15.05;;;4.28;;
9420;SDS011;4749;51.398;5.466;2022-10-28T16:53:16;10.32;;;4.30;;
9420;SDS011;4749;51.398;5.466;2022-10-28T16:55:44;16.88;;;4.07;;
9420;SDS011;4749;51.398;5.466;2022-10-28T16:58:11;13.50;;;4.13;;
9420;SDS011;4749;51.398;5.466;2022-10-28T17:00:39;8.38;;;3.38;;
9420;SDS011;4749;51.398;5.466;2022-10-28T17:03:06;14.40;;;3.83;;
9420;SDS011;4749;51.398;5.466;2022-10-28T17:05:37;13.77;;;3.78;;
9420;SDS011;4749;51.398;5.466;2022-10-28T17:08:04;9.98;;;3.90;;
9420;SDS011;4749;51.398;5.466;2022-10-28T17:10:35;8.40;;;3.22;;
9420;SDS011;4749;51.398;5.466;2022-10-28T17:13:10;13.07;;;3.92;;
9420;SDS011;4749;51.398;5.466;2022-10-28T17:15:41;8.63;;;3.60;;
9420;SDS011;4749;51.398;5.466;2022-10-28T17:18:10;10.43;;;4.85;;
9420;SDS011;4749;51.398;5.466;2022-10-28T17:20:40;12.18;;;3.72;;
9420;SDS011;4749;51.398;5.466;2022-10-28T17:23:07;8.48;;;3.50;;
9420;SDS011;4749;51.398;5.466;2022-10-28T17:25:34;10.25;;;3.53;;
9420;SDS011;4749;51.398;5.466;2022-10-28T17:28:02;9.18;;;3.38;;
9420;SDS011;4749;51.398;5.466;2022-10-28T17:30:29;10.23;;;3.35;;
9420;SDS011;4749;51.398;5.466;2022-10-28T17:32:56;9.50;;;3.58;;
9420;SDS011;4749;51.398;5.466;2022-10-28T17:35:23;7.82;;;3.70;;
9420;SDS011;4749;51.398;5.466;2022-10-28T17:37:50;12.93;;;3.75;;
9420;SDS011;4749;51.398;5.466;2022-10-28T17:40:18;8.00;;;3.80;;
9420;SDS011;4749;51.398;5.466;2022-10-28T17:42:45;10.38;;;3.63;;
9420;SDS011;4749;51.398;5.466;2022-10-28T17:45:12;10.90;;;3.88;;
9420;SDS011;4749;51.398;5.466;2022-10-28T17:47:47;10.27;;;3.85;;
9420;SDS011;4749;51.398;5.466;2022-10-28T17:50:14;12.98;;;4.25;;
9420;SDS011;4749;51.398;5.466;2022-10-28T17:52:42;9.40;;;3.22;;
9420;SDS011;4749;51.398;5.466;2022-10-28T17:55:09;10.23;;;4.13;;
9420;SDS011;4749;51.398;5.466;2022-10-28T17:57:36;11.95;;;3.75;;
9420;SDS011;4749;51.398;5.466;2022-10-28T18:00:03;8.80;;;4.25;;
9420;SDS011;4749;51.398;5.466;2022-10-28T18:02:31;11.07;;;4.18;;
9420;SDS011;4749;51.398;5.466;2022-10-28T18:04:59;13.38;;;4.25;;
9420;SDS011;4749;51.398;5.466;2022-10-28T18:07:26;12.18;;;4.15;;
9420;SDS011;4749;51.398;5.466;2022-10-28T18:09:53;15.55;;;4.28;;
9420;SDS011;4749;51.398;5.466;2022-10-28T18:12:22;8.00;;;4.15;;
9420;SDS011;4749;51.398;5.466;2022-10-28T18:14:50;12.30;;;4.07;;
9420;SDS011;4749;51.398;5.466;2022-10-28T18:17:17;9.65;;;4.05;;
9420;SDS011;4749;51.398;5.466;2022-10-28T18:19:44;13.23;;;4.25;;
9420;SDS011;4749;51.398;5.466;2022-10-28T18:22:11;14.48;;;4.25;;
9420;SDS011;4749;51.398;5.466;2022-10-28T18:24:38;13.55;;;4.93;;
9420;SDS011;4749;51.398;5.466;2022-10-28T18:27:05;9.27;;;3.83;;
9420;SDS011;4749;51.398;5.466;2022-10-28T18:29:32;13.70;;;3.83;;
9420;SDS011;4749;51.398;5.466;2022-10-28T18:31:59;9.57;;;3.80;;
9420;SDS011;4749;51.398;5.466;2022-10-28T18:34:29;9.60;;;4.63;;
9420;SDS011;4749;51.398;5.466;2022-10-28T18:37:06;11.45;;;3.97;;
9420;SDS011;4749;51.398;5.466;2022-10-28T18:39:34;13.23;;;4.10;;
9420;SDS011;4749;51.398;5.466;2022-10-28T18:42:01;12.10;;;3.92;;
9420;SDS011;4749;51.398;5.466;2022-10-28T18:44:29;13.73;;;4.50;;
9420;SDS011;4749;51.398;5.466;2022-10-28T18:46:57;6.72;;;4.35;;
9420;SDS011;4749;51.398;5.466;2022-10-28T18:49:24;10.35;;;4.47;;
9420;SDS011;4749;51.398;5.466;2022-10-28T18:51:52;13.57;;;4.60;;
9420;SDS011;4749;51.398;5.466;2022-10-28T18:54:20;11.30;;;3.72;;
9420;SDS011;4749;51.398;5.466;2022-10-28T18:57:05;10.50;;;4.18;;